Time;durP1;ratioP1;P1;durP2;ratioP2;P2;SDS_P1;SDS_P2;PMS_P1;PMS_P2;Temp;Humidity;BMP_temperature;BMP_pressure;BME280_temperature;BME280_humidity;BME280_pressure;Samples;Min_cycle;Max_cycle;Signal;HPM_P1;HPM_P2
2021/04/13 00:00:34;;;;;;;;;;;20.30;49.60;;;;;;1041283;28;19905;-74
2021/04/13 00:01:08;;;;;;;;;;;20.30;49.70;;;;;;1041275;28;19905;-74
2021/04/13 00:01:39;;;;;;;;;;;20.30;49.50;;;;;;1039710;28;20048;-73
2021/04/13 00:02:15;;;;;;;;;;;20.30;49.40;;;;;;1041033;28;19913;-73
2021/04/13 00:02:51;;;;;;;;;;;20.30;49.40;;;;;;1041385;28;19905;-74
2021/04/13 00:03:23;;;;;;;;;;;20.30;49.40;;;;;;1041137;28;19979;-74
2021/04/13 00:04:06;;;;;;;;;;;20.30;49.50;;;;;;1035288;28;19999;-74
2021/04/13 00:04:37;;;;;;;;;;;20.30;49.40;;;;;;1033205;28;19985;-74
2021/04/13 00:05:09;;;;;;;;;;;20.30;49.40;;;;;;1035138;28;19941;-73
2021/04/13 00:05:42;;;;;;;;;;;20.30;49.40;;;;;;1039231;28;19905;-74
2021/04/13 00:06:17;;;;;;;;;;;20.20;49.50;;;;;;1041297;28;20241;-74
2021/04/13 00:06:49;;;;;;;;;;;20.20;49.70;;;;;;1041204;28;20050;-74
2021/04/13 00:07:22;;;;;;;;;;;20.20;49.80;;;;;;1041290;28;19928;-73
2021/04/13 00:07:53;;;;;;;;;;;20.20;49.70;;;;;;1041300;28;20231;-74
2021/04/13 00:08:24;;;;;;;;;;;20.20;49.90;;;;;;1040549;28;19905;-74
2021/04/13 00:08:57;;;;;;;;;;;20.10;50.20;;;;;;1037445;28;19905;-73
2021/04/13 00:09:31;;;;;;;;;;;20.10;50.40;;;;;;1041173;28;19928;-74
2021/04/13 00:10:07;;;;;;;;;;;20.10;50.20;;;;;;1041203;28;19916;-74
2021/04/13 00:10:42;;;;;;;;;;;20.10;50.50;;;;;;1041172;28;19905;-74
2021/04/13 00:11:14;;;;;;;;;;;20.00;50.10;;;;;;1041279;28;19916;-74
2021/04/13 00:11:46;;;;;;;;;;;20.00;50.40;;;;;;1041179;28;19952;-74
2021/04/13 00:12:21;;;;;;;;;;;20.00;50.40;;;;;;1039874;28;19909;-74
2021/04/13 00:12:52;;;;;;;;;;;20.00;50.40;;;;;;1037128;28;19916;-74
2021/04/13 00:13:24;;;;;;;;;;;20.00;50.40;;;;;;1040062;28;19905;-75
2021/04/13 00:13:56;;;;;;;;;;;20.00;50.40;;;;;;1038034;28;19948;-74
2021/04/13 00:14:33;;;;;;;;;;;20.00;50.50;;;;;;1041237;28;19941;-74
2021/04/13 00:15:15;;;;;;;;;;;20.00;50.50;;;;;;1040051;28;19905;-74
2021/04/13 00:15:49;;;;;;;;;;;20.10;50.50;;;;;;1033330;28;19906;-74
2021/04/13 00:16:22;;;;;;;;;;;20.00;50.60;;;;;;1033327;28;19905;-74
2021/04/13 00:16:55;;;;;;;;;;;20.00;50.70;;;;;;1041104;28;19955;-74
2021/04/13 00:17:28;;;;;;;;;;;20.00;50.70;;;;;;1041255;28;19905;-74
2021/04/13 00:18:00;;;;;;;;;;;20.00;50.70;;;;;;1041131;28;20216;-73
2021/04/13 00:18:32;;;;;;;;;;;20.00;50.70;;;;;;1039380;28;20361;-74
2021/04/13 00:19:04;;;;;;;;;;;20.00;50.90;;;;;;1041078;28;19905;-74
2021/04/13 00:19:54;;;;;;;;;;;20.10;51.00;;;;;;1041094;28;19905;-74
2021/04/13 00:20:31;;;;;;;;;;;20.10;51.60;;;;;;1041183;28;19905;-74
2021/04/13 00:21:04;;;;;;;;;;;20.10;50.60;;;;;;1037420;28;19902;-74
2021/04/13 00:21:41;;;;;;;;;;;20.10;50.80;;;;;;1032997;28;20324;-73
2021/04/13 00:22:12;;;;;;;;;;;20.10;50.80;;;;;;1033033;28;19968;-74
2021/04/13 00:22:44;;;;;;;;;;;20.10;51.00;;;;;;1036852;28;19912;-74
2021/04/13 00:23:16;;;;;;;;;;;20.10;50.80;;;;;;1038201;28;19912;-74
2021/04/13 00:23:47;;;;;;;;;;;20.10;50.60;;;;;;1036985;28;20428;-73
2021/04/13 00:24:19;;;;;;;;;;;20.10;50.50;;;;;;1036656;28;19901;-75
2021/04/13 00:24:51;;;;;;;;;;;20.10;50.70;;;;;;1028992;28;20332;-74
2021/04/13 00:25:28;;;;;;;;;;;20.10;50.40;;;;;;1029571;28;19902;-74
2021/04/13 00:26:03;;;;;;;;;;;20.10;50.40;;;;;;1032993;28;19908;-74
2021/04/13 00:26:35;;;;;;;;;;;20.10;50.30;;;;;;1034825;28;19902;-74
2021/04/13 00:27:06;;;;;;;;;;;20.10;50.40;;;;;;1032956;28;19940;-73
2021/04/13 00:27:38;;;;;;;;;;;20.10;50.50;;;;;;1033212;28;20367;-74
2021/04/13 00:28:10;;;;;;;;;;;20.10;50.50;;;;;;1036964;28;19905;-74
2021/04/13 00:28:47;;;;;;;;;;;20.10;50.50;;;;;;1037565;28;19963;-74
2021/04/13 00:29:20;;;;;;;;;;;20.10;50.20;;;;;;1041165;28;19901;-74
2021/04/13 00:30:02;;;;;;;;;;;20.10;50.50;;;;;;1039501;28;19901;-74
2021/04/13 00:30:41;;;;;;;;;;;20.10;50.40;;;;;;1037198;28;19909;-74
2021/04/13 00:31:45;;;;;;;;;;;20.10;50.40;;;;;;1037138;28;19951;-74
2021/04/13 00:32:21;;;;;;;;;;;20.10;50.40;;;;;;1031829;28;19903;-74
2021/04/13 00:33:01;;;;;;;;;;;20.10;50.80;;;;;;1036832;28;19901;-74
2021/04/13 00:33:34;;;;;;;;;;;20.00;50.50;;;;;;1037040;28;19912;-74
2021/04/13 00:34:09;;;;;;;;;;;20.10;50.40;;;;;;1034673;28;19917;-74
2021/04/13 00:34:58;;;;;;;;;;;20.10;50.60;;;;;;1034938;28;19909;-74
2021/04/13 00:35:43;;;;;;;;;;;20.00;50.70;;;;;;1036425;28;19917;-74
2021/04/13 00:36:16;;;;;;;;;;;20.20;50.40;;;;;;1038675;28;19917;-74
2021/04/13 00:36:48;;;;;;;;;;;20.10;50.20;;;;;;1037788;28;20275;-74
2021/04/13 00:37:24;;;;;;;;;;;20.10;49.80;;;;;;1041176;28;20351;-74
2021/04/13 00:38:14;;;;;;;;;;;20.20;49.90;;;;;;1038348;28;19951;-74
2021/04/13 00:38:46;;;;;;;;;;;20.10;50.10;;;;;;1035956;28;19948;-74
2021/04/13 00:39:18;;;;;;;;;;;20.10;50.20;;;;;;1035176;28;19906;-74
2021/04/13 00:39:51;;;;;;;;;;;20.10;50.30;;;;;;1036950;28;19916;-74
2021/04/13 00:40:27;;;;;;;;;;;20.10;50.00;;;;;;1037873;28;20259;-74
2021/04/13 00:41:16;;;;;;;;;;;20.10;49.90;;;;;;1039142;28;19905;-73
2021/04/13 00:41:49;;;;;;;;;;;20.10;49.70;;;;;;1034030;28;19921;-74
2021/04/13 00:42:30;;;;;;;;;;;20.10;49.70;;;;;;1037096;28;19910;-74
2021/04/13 00:43:03;;;;;;;;;;;20.10;49.40;;;;;;1036999;28;19910;-74
2021/04/13 00:43:34;;;;;;;;;;;20.10;49.60;;;;;;1041044;28;20350;-74
2021/04/13 00:44:07;;;;;;;;;;;20.10;50.40;;;;;;1039735;28;20393;-74
2021/04/13 00:44:46;;;;;;;;;;;20.20;49.80;;;;;;1032768;28;19996;-75
2021/04/13 00:45:21;;;;;;;;;;;20.20;49.60;;;;;;1035789;28;19917;-74
2021/04/13 00:45:53;;;;;;;;;;;20.20;49.60;;;;;;1038372;28;21433;-74
2021/04/13 00:46:31;;;;;;;;;;;20.20;49.40;;;;;;1040542;28;19996;-74
2021/04/13 00:47:04;;;;;;;;;;;20.20;50.00;;;;;;1041175;28;19927;-74
2021/04/13 00:47:36;;;;;;;;;;;20.20;49.60;;;;;;1039550;28;19909;-75
2021/04/13 00:48:07;;;;;;;;;;;20.20;49.50;;;;;;1037321;28;19905;-74
2021/04/13 00:48:40;;;;;;;;;;;20.20;49.40;;;;;;1037243;28;19945;-75
2021/04/13 00:49:13;;;;;;;;;;;20.20;49.50;;;;;;1037282;28;19928;-75
2021/04/13 00:49:49;;;;;;;;;;;20.20;49.60;;;;;;1040897;28;19919;-74
2021/04/13 00:50:29;;;;;;;;;;;20.20;49.70;;;;;;1041135;28;19916;-75
2021/04/13 00:51:21;;;;;;;;;;;20.20;49.90;;;;;;1040962;28;20565;-75
2021/04/13 00:51:57;;;;;;;;;;;20.20;49.50;;;;;;1037113;28;20283;-75
2021/04/13 00:52:34;;;;;;;;;;;20.30;49.30;;;;;;1032888;28;20344;-74
2021/04/13 00:53:07;;;;;;;;;;;20.30;49.10;;;;;;1032821;28;19909;-74
2021/04/13 00:53:39;;;;;;;;;;;20.20;48.90;;;;;;1032861;28;20264;-75
2021/04/13 00:54:12;;;;;;;;;;;20.30;49.00;;;;;;1034368;28;19902;-74
2021/04/13 00:54:47;;;;;;;;;;;20.20;49.00;;;;;;1037076;28;20276;-75
2021/04/13 00:55:20;;;;;;;;;;;20.20;48.80;;;;;;1037197;28;19941;-74
2021/04/13 00:55:54;;;;;;;;;;;20.20;49.50;;;;;;1037164;28;20016;-74
2021/04/13 00:56:25;;;;;;;;;;;20.20;48.70;;;;;;1040932;28;19944;-74
2021/04/13 00:57:00;;;;;;;;;;;20.20;48.80;;;;;;1036672;28;20319;-73
2021/04/13 00:57:42;;;;;;;;;;;20.30;48.90;;;;;;1036779;28;19906;-73
2021/04/13 00:58:16;;;;;;;;;;;20.30;48.90;;;;;;1034641;28;19901;-73
2021/04/13 00:58:54;;;;;;;;;;;20.30;48.80;;;;;;1033236;28;20328;-74
2021/04/13 00:59:26;;;;;;;;;;;20.30;49.20;;;;;;1037132;28;19901;-74
2021/04/13 00:59:58;;;;;;;;;;;20.30;48.90;;;;;;1037175;28;20374;-74
2021/04/13 01:00:32;;;;;;;;;;;20.30;48.50;;;;;;1037221;28;19988;-74
2021/04/13 01:01:10;;;;;;;;;;;20.30;48.60;;;;;;1037228;28;19984;-74
2021/04/13 01:01:50;;;;;;;;;;;20.30;48.50;;;;;;1035226;28;20009;-74
2021/04/13 01:02:26;;;;;;;;;;;20.30;48.20;;;;;;1035065;28;19902;-74
2021/04/13 01:02:58;;;;;;;;;;;20.30;48.10;;;;;;1037253;28;19965;-74
2021/04/13 01:03:30;;;;;;;;;;;20.30;48.30;;;;;;1036652;28;20239;-74
2021/04/13 01:04:08;;;;;;;;;;;20.30;48.50;;;;;;1036875;28;19949;-75
2021/04/13 01:04:40;;;;;;;;;;;20.30;48.40;;;;;;1036769;28;19905;-74
2021/04/13 01:05:18;;;;;;;;;;;20.30;49.00;;;;;;1037243;28;20256;-73
2021/04/13 01:05:53;;;;;;;;;;;20.30;48.50;;;;;;1038451;28;19920;-74
2021/04/13 01:06:25;;;;;;;;;;;20.40;48.60;;;;;;1032845;28;19902;-73
2021/04/13 01:07:08;;;;;;;;;;;20.30;48.70;;;;;;1032826;28;19952;-73
2021/04/13 01:07:47;;;;;;;;;;;20.30;48.60;;;;;;1036251;28;19924;-74
2021/04/13 01:08:20;;;;;;;;;;;20.40;48.60;;;;;;1044263;28;19958;-74
2021/04/13 01:09:12;;;;;;;;;;;20.30;48.70;;;;;;1042178;28;19944;-74
2021/04/13 01:09:43;;;;;;;;;;;20.30;48.70;;;;;;1041282;28;20314;-74
2021/04/13 01:10:22;;;;;;;;;;;20.40;48.70;;;;;;1041213;28;20035;-74
2021/04/13 01:10:55;;;;;;;;;;;20.50;49.00;;;;;;1041285;28;19901;-74
2021/04/13 01:11:28;;;;;;;;;;;20.50;48.80;;;;;;1040978;28;19912;-73
2021/04/13 01:12:04;;;;;;;;;;;20.50;48.40;;;;;;1040904;28;19912;-74
2021/04/13 01:12:37;;;;;;;;;;;20.50;48.50;;;;;;1036801;28;19901;-73
2021/04/13 01:13:30;;;;;;;;;;;20.40;48.70;;;;;;1036988;28;19993;-74
2021/04/13 01:14:02;;;;;;;;;;;20.40;48.70;;;;;;1041078;28;19909;-74
2021/04/13 01:14:33;;;;;;;;;;;20.40;48.50;;;;;;1041226;28;19916;-73
2021/04/13 01:15:06;;;;;;;;;;;20.40;48.60;;;;;;1040411;28;19916;-74
2021/04/13 01:15:38;;;;;;;;;;;20.40;48.50;;;;;;1036648;28;19905;-74
2021/04/13 01:16:10;;;;;;;;;;;20.40;49.20;;;;;;1036808;28;19916;-74
2021/04/13 01:16:46;;;;;;;;;;;20.40;48.60;;;;;;1036942;28;20294;-74
2021/04/13 01:17:18;;;;;;;;;;;20.40;48.30;;;;;;1032765;28;19909;-73
2021/04/13 01:17:49;;;;;;;;;;;20.40;48.40;;;;;;1029803;28;19946;-73
2021/04/13 01:18:23;;;;;;;;;;;20.40;48.50;;;;;;1032827;28;19906;-73
2021/04/13 01:18:55;;;;;;;;;;;20.30;48.60;;;;;;1033595;28;20216;-73
2021/04/13 01:19:38;;;;;;;;;;;20.30;48.70;;;;;;1033189;28;19905;-73
2021/04/13 01:20:17;;;;;;;;;;;20.30;48.70;;;;;;1036390;28;19992;-74
2021/04/13 01:20:54;;;;;;;;;;;20.30;49.30;;;;;;1035739;28;19913;-74
2021/04/13 01:21:42;;;;;;;;;;;20.30;48.80;;;;;;1036435;28;19955;-74
2021/04/13 01:22:18;;;;;;;;;;;20.30;48.80;;;;;;1033572;28;20303;-74
2021/04/13 01:23:36;;;;;;;;;;;20.30;48.70;;;;;;1040975;28;19928;-74
2021/04/13 01:24:13;;;;;;;;;;;20.30;48.60;;;;;;1040869;28;19948;-73
2021/04/13 01:24:50;;;;;;;;;;;20.30;48.20;;;;;;1033538;28;20316;-74
2021/04/13 01:25:25;;;;;;;;;;;20.30;48.20;;;;;;1036724;28;19909;-74
2021/04/13 01:25:59;;;;;;;;;;;20.40;48.50;;;;;;1036692;28;20363;-74
2021/04/13 01:26:31;;;;;;;;;;;20.40;48.30;;;;;;1036736;28;19916;-74
2021/04/13 01:27:07;;;;;;;;;;;20.40;48.10;;;;;;1033788;28;20339;-74
2021/04/13 01:27:45;;;;;;;;;;;20.40;47.90;;;;;;1037318;28;19906;-74
2021/04/13 01:28:18;;;;;;;;;;;20.50;47.70;;;;;;1037392;28;19924;-74
2021/04/13 01:28:51;;;;;;;;;;;20.50;47.40;;;;;;1037893;28;19979;-74
2021/04/13 01:29:24;;;;;;;;;;;20.50;47.40;;;;;;1035680;28;20381;-73
2021/04/13 01:29:57;;;;;;;;;;;20.50;47.40;;;;;;1036604;28;20302;-74
2021/04/13 01:30:38;;;;;;;;;;;20.40;47.40;;;;;;1036890;28;19906;-74
2021/04/13 01:31:11;;;;;;;;;;;20.50;47.30;;;;;;1036809;28;20327;-73
2021/04/13 01:31:52;;;;;;;;;;;20.50;47.10;;;;;;1040891;28;19940;-74
2021/04/13 01:32:24;;;;;;;;;;;20.50;47.00;;;;;;1037507;28;20415;-74
2021/04/13 01:33:06;;;;;;;;;;;20.40;47.00;;;;;;1040974;28;19905;-74
2021/04/13 01:33:54;;;;;;;;;;;20.50;46.80;;;;;;1036631;28;20389;-74
2021/04/13 01:34:40;;;;;;;;;;;20.50;46.70;;;;;;1032694;28;20303;-74
2021/04/13 01:35:14;;;;;;;;;;;20.50;46.80;;;;;;1033051;28;20303;-74
2021/04/13 01:35:50;;;;;;;;;;;20.40;46.90;;;;;;1039450;28;20335;-74
2021/04/13 01:36:29;;;;;;;;;;;20.40;46.80;;;;;;1041389;28;19904;-73
2021/04/13 01:39:02;;;;;;;;;;;20.40;46.50;;;;;;1031955;28;20348;-74
2021/04/13 01:39:13;;;;;;;;;;;20.40;46.60;;;;;;1029977;28;19906;-73
2021/04/13 01:39:53;;;;;;;;;;;20.40;46.60;;;;;;1033309;28;19985;-74
2021/04/13 01:42:28;;;;;;;;;;;20.40;46.60;;;;;;1036717;28;19988;-74
2021/04/13 01:42:59;;;;;;;;;;;20.40;46.40;;;;;;1036564;28;19909;-74
2021/04/13 01:43:35;;;;;;;;;;;20.40;46.00;;;;;;1035424;28;19914;-74
2021/04/13 01:44:07;;;;;;;;;;;20.30;45.80;;;;;;1037001;28;20000;-74
2021/04/13 01:44:40;;;;;;;;;;;20.30;45.90;;;;;;1040846;28;19909;-74
2021/04/13 01:45:13;;;;;;;;;;;20.30;46.00;;;;;;1036761;28;19912;-73
2021/04/13 01:45:47;;;;;;;;;;;20.20;46.10;;;;;;1036819;28;19916;-74
2021/04/13 01:46:18;;;;;;;;;;;20.20;46.20;;;;;;1036406;28;20243;-73
2021/04/13 01:46:50;;;;;;;;;;;20.20;46.20;;;;;;1033290;28;19906;-74
2021/04/13 01:47:22;;;;;;;;;;;20.20;46.30;;;;;;1036211;28;19944;-74
2021/04/13 01:47:54;;;;;;;;;;;20.20;46.40;;;;;;1034965;28;19910;-74
2021/04/13 01:48:25;;;;;;;;;;;20.20;46.50;;;;;;1033081;28;19925;-74
2021/04/13 01:48:56;;;;;;;;;;;20.20;46.40;;;;;;1036767;28;19967;-74
2021/04/13 01:49:28;;;;;;;;;;;20.20;46.20;;;;;;1036766;28;19921;-73
2021/04/13 01:50:01;;;;;;;;;;;20.20;46.60;;;;;;1040643;28;19927;-74
2021/04/13 01:50:37;;;;;;;;;;;20.20;46.30;;;;;;1039432;28;19916;-74
2021/04/13 01:51:09;;;;;;;;;;;20.20;46.30;;;;;;1031974;28;19922;-75
2021/04/13 01:51:40;;;;;;;;;;;20.20;46.10;;;;;;1032424;28;19913;-74
2021/04/13 01:52:12;;;;;;;;;;;20.20;46.00;;;;;;1033939;28;19906;-74
2021/04/13 01:52:46;;;;;;;;;;;20.20;46.00;;;;;;1037221;28;19992;-75
2021/04/13 01:53:20;;;;;;;;;;;20.20;46.20;;;;;;1037673;28;19909;-75
2021/04/13 01:53:51;;;;;;;;;;;20.20;46.00;;;;;;1037957;28;20026;-75
2021/04/13 01:54:23;;;;;;;;;;;20.20;46.10;;;;;;1040167;28;19909;-75
2021/04/13 01:54:54;;;;;;;;;;;20.20;46.30;;;;;;1037532;28;20004;-75
2021/04/13 01:55:27;;;;;;;;;;;20.20;46.20;;;;;;1040311;28;20002;-75
2021/04/13 01:56:01;;;;;;;;;;;20.10;46.10;;;;;;1033137;28;19929;-75
2021/04/13 01:56:37;;;;;;;;;;;20.20;46.30;;;;;;1033642;28;19905;-75
2021/04/13 01:57:18;;;;;;;;;;;20.20;46.30;;;;;;1036889;28;19909;-74
2021/04/13 01:58:07;;;;;;;;;;;20.20;46.40;;;;;;1036572;28;19910;-74
2021/04/13 01:58:52;;;;;;;;;;;20.10;46.20;;;;;;1032892;28;19906;-74
2021/04/13 01:59:31;;;;;;;;;;;20.10;46.10;;;;;;1032982;28;20332;-74
2021/04/13 02:00:13;;;;;;;;;;;20.10;46.10;;;;;;1037049;28;19958;-75
2021/04/13 02:00:49;;;;;;;;;;;20.10;46.10;;;;;;1037078;28;20335;-74
2021/04/13 02:01:28;;;;;;;;;;;20.00;46.20;;;;;;1036857;28;19976;-74
2021/04/13 02:02:00;;;;;;;;;;;20.00;46.10;;;;;;1040646;28;19956;-74
2021/04/13 02:02:32;;;;;;;;;;;19.90;46.30;;;;;;1039472;28;19909;-74
2021/04/13 02:03:07;;;;;;;;;;;20.00;46.10;;;;;;1040876;28;19937;-74
2021/04/13 02:03:57;;;;;;;;;;;20.00;46.00;;;;;;1039670;28;20370;-74
2021/04/13 02:04:32;;;;;;;;;;;19.90;46.10;;;;;;1036352;28;19916;-74
2021/04/13 02:05:08;;;;;;;;;;;19.90;46.30;;;;;;1036276;28;19917;-74
2021/04/13 02:05:40;;;;;;;;;;;19.80;46.40;;;;;;1031440;28;20339;-74
2021/04/13 02:06:15;;;;;;;;;;;19.80;46.50;;;;;;1033898;28;20347;-74
2021/04/13 02:07:02;;;;;;;;;;;19.80;46.60;;;;;;1036430;28;19913;-74
2021/04/13 02:08:20;;;;;;;;;;;19.70;46.90;;;;;;1036773;28;19909;-74
2021/04/13 02:08:33;;;;;;;;;;;19.60;47.40;;;;;;1034698;28;19905;-74
2021/04/13 02:09:09;;;;;;;;;;;19.60;47.60;;;;;;1036784;28;20225;-74
2021/04/13 02:09:43;;;;;;;;;;;19.50;47.30;;;;;;1037038;28;19909;-74
2021/04/13 02:10:25;;;;;;;;;;;19.40;47.20;;;;;;1040767;28;20278;-74
2021/04/13 02:11:11;;;;;;;;;;;19.30;47.70;;;;;;1036629;28;19909;-74
2021/04/13 02:11:43;;;;;;;;;;;19.30;48.20;;;;;;1032680;28;19914;-74
2021/04/13 02:12:16;;;;;;;;;;;19.30;48.60;;;;;;1035325;28;20456;-74
2021/04/13 02:12:49;;;;;;;;;;;19.20;48.50;;;;;;1039479;28;19963;-74
2021/04/13 02:13:27;;;;;;;;;;;19.20;48.60;;;;;;1039793;28;20075;-74
2021/04/13 02:14:01;;;;;;;;;;;19.10;48.70;;;;;;1040507;28;19917;-74
2021/04/13 02:14:35;;;;;;;;;;;19.00;48.90;;;;;;1040783;28;19924;-74
2021/04/13 02:15:09;;;;;;;;;;;19.00;49.20;;;;;;1038458;28;19901;-74
2021/04/13 02:15:51;;;;;;;;;;;18.90;49.40;;;;;;1033179;28;19910;-74
2021/04/13 02:16:25;;;;;;;;;;;18.80;49.50;;;;;;1036238;28;19905;-73
2021/04/13 02:17:16;;;;;;;;;;;18.70;49.70;;;;;;1036937;28;19993;-73
2021/04/13 02:17:56;;;;;;;;;;;18.70;49.80;;;;;;1035972;28;19983;-74
2021/04/13 02:18:27;;;;;;;;;;;18.60;50.00;;;;;;1036776;28;19901;-74
2021/04/13 02:19:00;;;;;;;;;;;18.50;50.30;;;;;;1032308;28;19906;-73
2021/04/13 02:19:31;;;;;;;;;;;18.50;50.50;;;;;;1032581;28;20328;-74
2021/04/13 02:20:05;;;;;;;;;;;18.40;50.50;;;;;;1028638;28;19942;-74
2021/04/13 02:20:41;;;;;;;;;;;18.40;50.60;;;;;;1032882;28;19908;-74
2021/04/13 02:21:14;;;;;;;;;;;18.40;50.90;;;;;;1036567;28;19919;-74
2021/04/13 02:21:47;;;;;;;;;;;18.30;51.00;;;;;;1038181;28;19910;-74
2021/04/13 02:22:20;;;;;;;;;;;18.20;51.10;;;;;;1036817;28;19914;-74
2021/04/13 02:22:51;;;;;;;;;;;18.20;51.20;;;;;;1032220;28;20330;-74
2021/04/13 02:23:27;;;;;;;;;;;18.10;51.30;;;;;;1032012;28;19910;-74
2021/04/13 02:24:02;;;;;;;;;;;18.00;51.50;;;;;;1032949;28;19918;-74
2021/04/13 02:24:34;;;;;;;;;;;18.00;51.60;;;;;;1035020;28;19928;-73
2021/04/13 02:25:05;;;;;;;;;;;17.90;51.80;;;;;;1037481;28;19912;-74
2021/04/13 02:25:38;;;;;;;;;;;17.80;51.90;;;;;;1036663;28;19929;-74
2021/04/13 02:26:09;;;;;;;;;;;17.80;52.00;;;;;;1035178;28;20371;-74
2021/04/13 02:26:51;;;;;;;;;;;17.80;52.10;;;;;;1035482;28;20333;-74
2021/04/13 02:27:23;;;;;;;;;;;17.70;52.80;;;;;;1037071;28;19996;-73
2021/04/13 02:27:55;;;;;;;;;;;17.70;52.20;;;;;;1040794;28;20305;-74
2021/04/13 02:28:27;;;;;;;;;;;17.70;52.40;;;;;;1038581;28;20294;-76
2021/04/13 02:28:59;;;;;;;;;;;17.70;52.40;;;;;;1036656;28;19952;-75
2021/04/13 02:29:33;;;;;;;;;;;17.60;52.40;;;;;;1040712;28;20035;-75
2021/04/13 02:30:09;;;;;;;;;;;17.60;52.50;;;;;;1041594;28;19905;-74
2021/04/13 02:30:42;;;;;;;;;;;17.60;52.60;;;;;;1042326;28;20030;-75
2021/04/13 02:31:36;;;;;;;;;;;17.60;52.40;;;;;;1041637;28;19912;-75
2021/04/13 02:32:12;;;;;;;;;;;17.50;52.40;;;;;;1036704;28;19909;-75
2021/04/13 02:32:44;;;;;;;;;;;17.50;52.10;;;;;;1033003;28;19945;-74
2021/04/13 02:33:19;;;;;;;;;;;17.40;52.50;;;;;;1032936;28;19905;-74
2021/04/13 02:33:50;;;;;;;;;;;17.40;52.60;;;;;;1032835;28;19996;-74
2021/04/13 02:34:36;;;;;;;;;;;17.40;52.60;;;;;;1033002;28;20003;-74
2021/04/13 02:35:15;;;;;;;;;;;17.40;52.50;;;;;;1036737;28;19910;-74
2021/04/13 02:35:46;;;;;;;;;;;17.40;52.50;;;;;;1043980;28;19919;-76
2021/04/13 02:36:29;;;;;;;;;;;17.30;52.60;;;;;;1040765;28;19948;-75
2021/04/13 02:37:01;;;;;;;;;;;17.30;52.70;;;;;;1040205;28;19916;-75
2021/04/13 02:37:36;;;;;;;;;;;17.20;53.10;;;;;;1038660;28;20366;-74
2021/04/13 02:38:10;;;;;;;;;;;17.10;53.40;;;;;;1031994;28;20315;-74
2021/04/13 02:38:46;;;;;;;;;;;17.10;53.60;;;;;;1030887;28;19953;-74
2021/04/13 02:39:18;;;;;;;;;;;17.10;53.60;;;;;;1034751;28;19906;-74
2021/04/13 02:39:49;;;;;;;;;;;17.10;54.20;;;;;;1036773;28;19920;-74
2021/04/13 02:40:26;;;;;;;;;;;17.00;53.60;;;;;;1044785;28;20388;-74
2021/04/13 02:41:05;;;;;;;;;;;17.00;53.80;;;;;;1043539;28;19967;-74
2021/04/13 02:41:40;;;;;;;;;;;16.90;53.50;;;;;;1040789;28;19905;-74
2021/04/13 02:42:16;;;;;;;;;;;17.00;53.50;;;;;;1038023;28;20397;-74
2021/04/13 02:42:49;;;;;;;;;;;16.90;53.70;;;;;;1029337;28;20009;-73
2021/04/13 02:43:26;;;;;;;;;;;16.90;53.80;;;;;;1032198;28;19917;-74
2021/04/13 02:44:04;;;;;;;;;;;16.90;53.80;;;;;;1032613;28;20012;-74
2021/04/13 02:44:35;;;;;;;;;;;16.90;53.90;;;;;;1037713;28;19909;-74
2021/04/13 02:45:08;;;;;;;;;;;16.80;54.00;;;;;;1040387;28;19917;-73
2021/04/13 02:45:42;;;;;;;;;;;16.80;54.00;;;;;;1040660;28;20319;-74
2021/04/13 02:46:21;;;;;;;;;;;16.80;54.20;;;;;;1039263;28;19909;-74
2021/04/13 02:46:55;;;;;;;;;;;16.80;54.20;;;;;;1036778;28;19909;-75
2021/04/13 02:47:27;;;;;;;;;;;16.80;54.20;;;;;;1036602;28;20023;-75
2021/04/13 02:48:04;;;;;;;;;;;16.70;54.20;;;;;;1034347;28;19957;-74
2021/04/13 02:48:41;;;;;;;;;;;16.70;54.20;;;;;;1032559;28;20000;-74
2021/04/13 02:49:14;;;;;;;;;;;16.70;54.30;;;;;;1032266;28;19913;-74
2021/04/13 02:49:45;;;;;;;;;;;16.60;54.50;;;;;;1035422;28;19996;-74
2021/04/13 02:50:17;;;;;;;;;;;16.60;54.50;;;;;;1037172;28;19909;-73
2021/04/13 02:50:49;;;;;;;;;;;16.60;54.60;;;;;;1036978;28;19917;-73
2021/04/13 02:51:21;;;;;;;;;;;16.60;54.60;;;;;;1033364;28;19909;-74
2021/04/13 02:52:03;;;;;;;;;;;16.50;54.50;;;;;;1033463;28;19916;-74
2021/04/13 02:52:38;;;;;;;;;;;16.50;54.50;;;;;;1036121;28;20229;-74
2021/04/13 02:53:10;;;;;;;;;;;16.50;54.20;;;;;;1036449;28;19920;-75
2021/04/13 02:53:45;;;;;;;;;;;16.50;54.30;;;;;;1033306;28;20244;-73
2021/04/13 02:54:21;;;;;;;;;;;16.50;54.60;;;;;;1036767;28;19925;-73
2021/04/13 02:54:56;;;;;;;;;;;16.40;54.50;;;;;;1037000;28;19996;-74
2021/04/13 02:55:29;;;;;;;;;;;16.40;54.70;;;;;;1039453;28;19905;-75
2021/04/13 02:56:00;;;;;;;;;;;16.40;54.70;;;;;;1038628;28;19910;-73
2021/04/13 02:56:33;;;;;;;;;;;16.40;54.80;;;;;;1040018;28;20359;-74
2021/04/13 02:57:06;;;;;;;;;;;16.40;55.00;;;;;;1037355;28;20349;-74
2021/04/13 02:57:39;;;;;;;;;;;16.40;55.00;;;;;;1037400;28;19905;-73
2021/04/13 02:58:11;;;;;;;;;;;16.30;54.80;;;;;;1037440;28;20004;-73
2021/04/13 02:58:47;;;;;;;;;;;16.30;54.70;;;;;;1033976;28;19913;-73
2021/04/13 02:59:18;;;;;;;;;;;16.30;54.80;;;;;;1034681;28;19910;-74
2021/04/13 02:59:49;;;;;;;;;;;16.40;54.70;;;;;;1037130;28;19987;-73
2021/04/13 03:00:29;;;;;;;;;;;16.40;54.70;;;;;;1037445;28;19909;-74
2021/04/13 03:01:00;;;;;;;;;;;16.40;54.80;;;;;;1037734;28;20306;-74
2021/04/13 03:01:33;;;;;;;;;;;16.40;55.00;;;;;;1037682;28;19905;-74
2021/04/13 03:02:04;;;;;;;;;;;16.40;54.80;;;;;;1041326;28;19963;-73
2021/04/13 03:02:39;;;;;;;;;;;16.30;54.70;;;;;;1041550;28;19995;-73
2021/04/13 03:03:13;;;;;;;;;;;16.30;54.80;;;;;;1041392;28;19909;-74
2021/04/13 03:03:44;;;;;;;;;;;16.30;54.80;;;;;;1040294;28;19991;-74
2021/04/13 03:04:16;;;;;;;;;;;16.30;54.70;;;;;;1041488;28;19915;-73
2021/04/13 03:04:51;;;;;;;;;;;16.30;54.70;;;;;;1041381;28;19992;-73
2021/04/13 03:05:26;;;;;;;;;;;16.30;54.60;;;;;;1041385;28;20007;-72
2021/04/13 03:05:58;;;;;;;;;;;16.30;54.60;;;;;;1038816;28;19905;-73
2021/04/13 03:06:29;;;;;;;;;;;16.30;54.60;;;;;;1030749;28;19934;-73
2021/04/13 03:07:00;;;;;;;;;;;16.30;54.70;;;;;;1033477;28;19913;-74
2021/04/13 03:07:31;;;;;;;;;;;16.30;54.80;;;;;;1037362;28;20270;-73
2021/04/13 03:08:07;;;;;;;;;;;16.30;54.80;;;;;;1037842;28;19995;-74
2021/04/13 03:08:39;;;;;;;;;;;16.20;54.90;;;;;;1042083;28;20319;-73
2021/04/13 03:09:11;;;;;;;;;;;16.30;55.00;;;;;;1043922;28;19913;-73
2021/04/13 03:09:42;;;;;;;;;;;16.20;55.00;;;;;;1040335;28;19955;-73
2021/04/13 03:10:14;;;;;;;;;;;16.20;55.20;;;;;;1041435;28;20254;-73
2021/04/13 03:10:52;;;;;;;;;;;16.20;55.40;;;;;;1041483;28;19944;-73
2021/04/13 03:11:25;;;;;;;;;;;16.10;55.40;;;;;;1037479;28;19984;-73
2021/04/13 03:11:57;;;;;;;;;;;16.10;55.40;;;;;;1038678;28;20309;-73
2021/04/13 03:12:29;;;;;;;;;;;16.10;55.30;;;;;;1041269;28;19952;-73
2021/04/13 03:13:05;;;;;;;;;;;16.10;55.30;;;;;;1040290;28;19909;-73
2021/04/13 03:13:36;;;;;;;;;;;16.20;55.30;;;;;;1038059;28;19917;-73
2021/04/13 03:14:08;;;;;;;;;;;16.20;55.20;;;;;;1040064;28;19909;-73
2021/04/13 03:14:40;;;;;;;;;;;16.20;55.40;;;;;;1037190;28;19905;-73
2021/04/13 03:15:13;;;;;;;;;;;16.20;55.30;;;;;;1037136;28;19905;-73
2021/04/13 03:15:50;;;;;;;;;;;16.10;55.80;;;;;;1036712;28;19905;-73
2021/04/13 03:16:30;;;;;;;;;;;16.10;55.80;;;;;;1037217;28;19909;-72
2021/04/13 03:17:01;;;;;;;;;;;16.10;55.70;;;;;;1033459;28;19917;-73
2021/04/13 03:17:32;;;;;;;;;;;16.10;55.90;;;;;;1042202;28;20254;-73
2021/04/13 03:18:07;;;;;;;;;;;16.10;55.90;;;;;;1041369;28;19992;-73
2021/04/13 03:18:40;;;;;;;;;;;16.10;56.00;;;;;;1040430;28;19920;-74
2021/04/13 03:19:13;;;;;;;;;;;16.10;56.00;;;;;;1039170;28;19913;-74
2021/04/13 03:19:45;;;;;;;;;;;16.10;56.00;;;;;;1036416;28;20263;-72
2021/04/13 03:20:19;;;;;;;;;;;16.10;55.80;;;;;;1034213;28;19990;-73
2021/04/13 03:20:52;;;;;;;;;;;16.20;55.70;;;;;;1035059;28;19914;-73
2021/04/13 03:21:28;;;;;;;;;;;16.20;55.60;;;;;;1036752;28;19909;-74
2021/04/13 03:22:03;;;;;;;;;;;16.20;55.60;;;;;;1035423;28;19939;-73
2021/04/13 03:22:35;;;;;;;;;;;16.10;55.80;;;;;;1037238;28;19906;-74
2021/04/13 03:23:07;;;;;;;;;;;16.10;55.80;;;;;;1035548;28;19913;-73
2021/04/13 03:23:39;;;;;;;;;;;16.10;55.90;;;;;;1036869;28;20414;-74
2021/04/13 03:24:12;;;;;;;;;;;16.10;56.10;;;;;;1037150;28;19920;-74
2021/04/13 03:24:44;;;;;;;;;;;16.00;56.10;;;;;;1037885;28;19906;-73
2021/04/13 03:25:15;;;;;;;;;;;16.00;56.00;;;;;;1041378;28;19905;-73
2021/04/13 03:26:12;;;;;;;;;;;16.00;56.20;;;;;;1040426;28;19905;-73
2021/04/13 03:26:57;;;;;;;;;;;16.00;56.90;;;;;;1032618;28;19913;-73
2021/04/13 03:27:30;;;;;;;;;;;15.90;56.60;;;;;;1035841;28;19906;-73
2021/04/13 03:28:03;;;;;;;;;;;15.90;57.00;;;;;;1040395;28;19909;-73
2021/04/13 03:28:40;;;;;;;;;;;15.80;57.00;;;;;;1036723;28;19913;-72
2021/04/13 03:29:15;;;;;;;;;;;15.80;57.00;;;;;;1031876;28;20343;-73